PAMKPASM

Guest
Details From PAMK - ST MICHAEL
To PASM - ST MARYS
Flight Number -
Tags generated
Created
Modified
Stats Distance 92 nm / 171 km
Max Altitude 100 ft / 30 m
Waypoints 3
Social Downloads 2
Likes 0
Share

Download

Looking for another format? Having issues loading an existing format? Contact us
Advertisement - Login to hide

Notes

Basic altitude profile: - Ascent Rate: 2500ft/min - Ascent Speed: 250kts - Cruise Altitude: 35000ft - Cruise Speed: 420kts - Descent Rate: 1500ft/min - Descent Speed: 250kts Options: - Use NATs: yes - Use PACOTS: yes - Use low airways: yes - Use high airways: yes

Route

PAMK SMA PASM

ID Type Via Altitude (ft/m) Position (lat/lon) Dist (leg/tot) Name
O PAMK APT - 0 / 0 63.49005 / -162.11038 - / 0 nm ST MICHAEL
SMA NDB - 100 / 30 62.05939 / -163.28189 91 / 91 nm ST MARYS NDB
O PASM APT - 0 / 0 62.05818 / -163.30311 0 / 92 nm ST MARYS

Altitude Profile

Advertisement - Login to hide

PAMK

Details ICAO PAMK (SMK)
Name ST MICHAEL
Region USA (Alaska)
Timezone America/Nome (UTC-9.0)
Stats Elevation 93 ft / 28 m (AMSL)
Location 63.490000° -162.110000°
Runways 1
Magnetic Variation 10.555° E

METAR

PAMK 302356Z AUTO 08010KT 9SM -SN OVC023 M11/M14 A2918 RMK AO2 SNE00B26 SLP882 P0000 60000 T11061139 11094 21117 56015 FZRANO

Decode

TAF

Not found

Departure Runways

ID Width Length Bearing (true/mag) Surface Threshold Overrun Markings Lighting
02 75 ft / 23 m 3,991 ft / 1,216 m 32.85° / 22.30° GRAVEL 0 ft / 0 m 299 ft / 91 m VISUAL EDGE THRESHOLD
20 75 ft / 23 m 3,991 ft / 1,216 m 212.87° / 202.31° GRAVEL 0 ft / 0 m 299 ft / 91 m VISUAL EDGE THRESHOLD

PASM

Details ICAO PASM (KSM)
Name St. Mary's
Region USA (Alaska)
Timezone America/Nome (UTC-9.0)
Stats Elevation 312 ft / 95 m (AMSL)
Location 62.058200° -163.304000°
Runways 2
Magnetic Variation 9.995° E

METAR

PASM 302356Z AUTO 01003KT 10SM CLR M12/M13 A2914 RMK AO2 SLP879 60000 T11171128 11100 21122 58027 FZRANO

Decode

TAF

Not found

Destination Runways

ID Width Length Bearing (true/mag) Surface Threshold Overrun Markings Lighting
06 60 ft / 18 m 1,521 ft / 464 m 76.86° / 66.86° GRAVEL 0 ft / 0 m 0 ft / 0 m VISUAL EDGE THRESHOLD
17 150 ft / 46 m 6,014 ft / 1,833 m 182.45° / 172.45° GRAVEL 0 ft / 0 m 0 ft / 0 m VISUAL EDGE THRESHOLD
24 60 ft / 18 m 1,521 ft / 464 m 256.86° / 246.87° GRAVEL 0 ft / 0 m 0 ft / 0 m VISUAL EDGE THRESHOLD
35 150 ft / 46 m 6,014 ft / 1,833 m 2.44° / 352.45° GRAVEL 0 ft / 0 m 0 ft / 0 m VISUAL EDGE THRESHOLD

Approach Navaids

Runway Type Ident Frequency Range Bearing (true/mag) Slope Elevation
17 DME ISMA 109.10 MHz 18 nm / 33 km - - 311 ft / 95 m (AMSL)
17 LOC-LOC ISMA 109.10 MHz 18 nm / 33 km 182.45° / 172.45 ° - 311 ft / 95 m (AMSL)